Terminal Aerodrome Forecast
Issued by NWS Green Bay, WI

Home | Current Version | Previous Version | Graphics & Text | Print | Product List | Glossary On
Versions: 1 2 3 4 5 6 7 8 9 10 11 12 13 14 15 16 17 18 19 20 21 22 23 24 25 26 27 28 29 30 31 32 33 34 35 36 37 38 39 40 41 42 43 44 45 46 47 48 49 50
725
FTUS43 KGRB 181727
TAFGRB
TAF
KGRB 181727Z 1818/1918 23010G17KT P6SM BKN009
      TEMPO 1818/1820 SCT009
     FM182000 23010G17KT P6SM SKC
     FM182200 23007KT P6SM SKC WS015/27035KT
     FM190600 23006KT P6SM SKC
      TEMPO 1910/1914 4SM BR SCT008
     FM191600 20005KT P6SM SCT250=

USA.gov is the U.S. government's official web portal to all federal, state and local government web resources and services.